sensor_id;sensor_type;location;lat;lon;timestamp;pressure;altitude;pressure_sealevel;temperature;humidity
66479;BME280;53294;47.912;13.526;2023-01-19T00:00:48;94901.72;;;1.74;61.67
66479;BME280;53294;47.912;13.526;2023-01-19T00:03:14;94904.59;;;1.83;61.62
66479;BME280;53294;47.912;13.526;2023-01-19T00:05:42;94919.53;;;1.48;61.98
66479;BME280;53294;47.912;13.526;2023-01-19T00:08:09;94924.28;;;1.56;61.96
66479;BME280;53294;47.912;13.526;2023-01-19T00:10:45;94924.06;;;1.48;62.33
66479;BME280;53294;47.912;13.526;2023-01-19T00:13:13;94929.59;;;1.51;62.22
66479;BME280;53294;47.912;13.526;2023-01-19T00:15:40;94929.63;;;1.36;62.47
66479;BME280;53294;47.912;13.526;2023-01-19T00:18:06;94936.44;;;1.52;62.20
66479;BME280;53294;47.912;13.526;2023-01-19T00:20:36;94940.38;;;1.70;61.48
66479;BME280;53294;47.912;13.526;2023-01-19T00:23:03;94938.50;;;1.81;61.41
66479;BME280;53294;47.912;13.526;2023-01-19T00:25:30;94951.53;;;1.67;61.66
66479;BME280;53294;47.912;13.526;2023-01-19T00:27:57;94946.50;;;1.66;61.62
66479;BME280;53294;47.912;13.526;2023-01-19T00:30:27;94959.78;;;1.40;62.39
66479;BME280;53294;47.912;13.526;2023-01-19T00:32:54;94971.44;;;1.34;62.39
66479;BME280;53294;47.912;13.526;2023-01-19T00:35:20;94972.50;;;1.28;62.55
66479;BME280;53294;47.912;13.526;2023-01-19T00:37:47;94977.25;;;1.31;62.54
66479;BME280;53294;47.912;13.526;2023-01-19T00:40:14;94982.81;;;1.14;62.91
66479;BME280;53294;47.912;13.526;2023-01-19T00:42:41;94977.78;;;1.17;62.77
66479;BME280;53294;47.912;13.526;2023-01-19T00:45:12;94977.78;;;1.17;62.77
66479;BME280;53294;47.912;13.526;2023-01-19T00:47:39;94974.59;;;1.10;62.74
66479;BME280;53294;47.912;13.526;2023-01-19T00:50:07;94971.94;;;1.10;62.71
66479;BME280;53294;47.912;13.526;2023-01-19T00:52:38;94969.03;;;1.06;63.21
66479;BME280;53294;47.912;13.526;2023-01-19T00:55:06;94968.50;;;1.10;63.21
66479;BME280;53294;47.912;13.526;2023-01-19T00:57:33;94974.06;;;1.23;62.80
66479;BME280;53294;47.912;13.526;2023-01-19T01:00:00;94973.28;;;1.28;62.58
66479;BME280;53294;47.912;13.526;2023-01-19T01:02:27;94974.63;;;1.15;63.00
66479;BME280;53294;47.912;13.526;2023-01-19T01:04:54;94976.19;;;1.21;62.78
66479;BME280;53294;47.912;13.526;2023-01-19T01:07:23;94984.66;;;1.29;62.83
66479;BME280;53294;47.912;13.526;2023-01-19T01:09:50;94983.59;;;1.35;62.75
66479;BME280;53294;47.912;13.526;2023-01-19T01:12:16;94983.88;;;1.38;62.42
66479;BME280;53294;47.912;13.526;2023-01-19T01:14:43;94978.84;;;1.42;62.34
66479;BME280;53294;47.912;13.526;2023-01-19T01:17:10;94987.81;;;1.20;63.06
66479;BME280;53294;47.912;13.526;2023-01-19T01:19:40;94991.53;;;0.99;63.68
66479;BME280;53294;47.912;13.526;2023-01-19T01:22:08;94986.50;;;1.07;63.41
66479;BME280;53294;47.912;13.526;2023-01-19T01:24:35;94985.69;;;0.92;63.82
66479;BME280;53294;47.912;13.526;2023-01-19T01:27:01;94976.16;;;0.70;64.95
66479;BME280;53294;47.912;13.526;2023-01-19T01:29:28;94976.69;;;0.72;64.51
66479;BME280;53294;47.912;13.526;2023-01-19T01:31:55;94974.56;;;0.74;64.84
66479;BME280;53294;47.912;13.526;2023-01-19T01:34:21;94972.47;;;0.86;64.34
66479;BME280;53294;47.912;13.526;2023-01-19T01:36:48;94974.59;;;0.84;64.36
66479;BME280;53294;47.912;13.526;2023-01-19T01:39:15;94984.88;;;0.81;64.64
66479;BME280;53294;47.912;13.526;2023-01-19T01:41:41;94985.66;;;0.61;65.66
66479;BME280;53294;47.912;13.526;2023-01-19T01:47:39;94976.66;;;0.51;65.89
66479;BME280;53294;47.912;13.526;2023-01-19T01:50:25;94980.38;;;0.61;65.69
66479;BME280;53294;47.912;13.526;2023-01-19T01:53:07;94981.72;;;0.68;65.42
66479;BME280;53294;47.912;13.526;2023-01-19T01:55:42;94978.78;;;0.65;65.68
66479;BME280;53294;47.912;13.526;2023-01-19T01:58:11;94984.31;;;0.63;65.33
66479;BME280;53294;47.912;13.526;2023-01-19T02:00:39;94982.22;;;0.76;64.76
66479;BME280;53294;47.912;13.526;2023-01-19T02:03:25;94991.47;;;0.63;65.96
66479;BME280;53294;47.912;13.526;2023-01-19T02:05:55;94991.38;;;0.27;66.85
66479;BME280;53294;47.912;13.526;2023-01-19T02:08:34;94982.41;;;0.43;66.11
66479;BME280;53294;47.912;13.526;2023-01-19T02:11:21;94983.53;;;0.68;65.60
66479;BME280;53294;47.912;13.526;2023-01-19T02:14:06;94992.81;;;0.76;65.35
66479;BME280;53294;47.912;13.526;2023-01-19T02:16:35;94986.22;;;0.73;65.48
66479;BME280;53294;47.912;13.526;2023-01-19T02:19:04;94979.31;;;0.77;65.36
66479;BME280;53294;47.912;13.526;2023-01-19T02:21:42;94988.31;;;0.86;65.21
66479;BME280;53294;47.912;13.526;2023-01-19T02:24:12;94984.09;;;0.85;65.11
66479;BME280;53294;47.912;13.526;2023-01-19T02:26:41;94982.53;;;0.89;65.16
66479;BME280;53294;47.912;13.526;2023-01-19T02:29:12;94984.13;;;1.06;64.52
66479;BME280;53294;47.912;13.526;2023-01-19T02:31:40;94989.91;;;0.82;65.22
66479;BME280;53294;47.912;13.526;2023-01-19T02:34:09;94992.25;;;0.53;66.60
66479;BME280;53294;47.912;13.526;2023-01-19T02:39:21;94990.59;;;0.37;66.98
66479;BME280;53294;47.912;13.526;2023-01-19T02:41:54;94999.88;;;0.39;67.26
66479;BME280;53294;47.912;13.526;2023-01-19T02:44:26;94989.56;;;0.43;67.13
66479;BME280;53294;47.912;13.526;2023-01-19T02:46:54;95005.16;;;0.39;67.24
66479;BME280;53294;47.912;13.526;2023-01-19T02:49:22;95004.59;;;0.32;67.79
66479;BME280;53294;47.912;13.526;2023-01-19T02:51:49;94996.97;;;0.41;67.50
66479;BME280;53294;47.912;13.526;2023-01-19T02:54:25;94999.34;;;0.52;67.24
66479;BME280;53294;47.912;13.526;2023-01-19T03:10:40;95011.13;;;0.19;68.83
66479;BME280;53294;47.912;13.526;2023-01-19T03:13:33;95008.00;;;0.32;68.66
66479;BME280;53294;47.912;13.526;2023-01-19T03:16:13;95010.44;;;0.39;68.28
66479;BME280;53294;47.912;13.526;2023-01-19T03:18:45;95012.50;;;0.37;68.42
66479;BME280;53294;47.912;13.526;2023-01-19T03:21:15;95018.94;;;0.51;67.78
66479;BME280;53294;47.912;13.526;2023-01-19T03:23:46;95015.19;;;0.47;68.35
66479;BME280;53294;47.912;13.526;2023-01-19T03:26:20;95018.88;;;0.41;68.25
66479;BME280;53294;47.912;13.526;2023-01-19T03:28:50;95024.16;;;0.41;68.32
66479;BME280;53294;47.912;13.526;2023-01-19T03:31:20;95026.31;;;0.49;68.26
66479;BME280;53294;47.912;13.526;2023-01-19T03:33:53;95024.75;;;0.59;67.75
66479;BME280;53294;47.912;13.526;2023-01-19T03:36:28;95025.22;;;0.40;68.55
66479;BME280;53294;47.912;13.526;2023-01-19T03:38:57;95029.44;;;0.41;68.69
66479;BME280;53294;47.912;13.526;2023-01-19T03:41:27;95033.69;;;0.47;68.64
66479;BME280;53294;47.912;13.526;2023-01-19T03:43:56;95029.97;;;0.38;68.73
66479;BME280;53294;47.912;13.526;2023-01-19T03:46:25;95029.72;;;0.40;68.88
66479;BME280;53294;47.912;13.526;2023-01-19T03:48:52;95030.75;;;0.39;68.66
66479;BME280;53294;47.912;13.526;2023-01-19T03:51:20;95030.81;;;0.49;68.61
66479;BME280;53294;47.912;13.526;2023-01-19T03:53:47;95021.84;;;0.60;68.08
66479;BME280;53294;47.912;13.526;2023-01-19T03:56:23;95023.22;;;0.73;67.88
66479;BME280;53294;47.912;13.526;2023-01-19T03:58:50;95030.81;;;0.49;68.84
66479;BME280;53294;47.912;13.526;2023-01-19T04:01:18;95034.84;;;0.72;68.12
66479;BME280;53294;47.912;13.526;2023-01-19T04:03:49;95027.44;;;0.69;68.03
66479;BME280;53294;47.912;13.526;2023-01-19T04:06:17;95034.06;;;0.71;68.00
66479;BME280;53294;47.912;13.526;2023-01-19T04:08:46;95037.22;;;0.79;68.01
66479;BME280;53294;47.912;13.526;2023-01-19T04:11:14;95031.16;;;0.83;67.90
66479;BME280;53294;47.912;13.526;2023-01-19T04:13:40;95035.38;;;0.79;67.96
66479;BME280;53294;47.912;13.526;2023-01-19T04:16:09;95032.75;;;0.84;67.84
66479;BME280;53294;47.912;13.526;2023-01-19T04:18:36;95039.03;;;0.58;69.14
66479;BME280;53294;47.912;13.526;2023-01-19T04:21:05;95035.31;;;0.59;69.24
66479;BME280;53294;47.912;13.526;2023-01-19T04:23:32;95038.00;;;0.64;68.98
66479;BME280;53294;47.912;13.526;2023-01-19T04:26:02;95033.78;;;0.73;68.80
66479;BME280;53294;47.912;13.526;2023-01-19T04:28:29;95041.69;;;0.63;69.54
66479;BME280;53294;47.912;13.526;2023-01-19T04:30:56;95039.34;;;0.71;68.90
66479;BME280;53294;47.912;13.526;2023-01-19T04:33:23;95049.09;;;0.71;69.05
66479;BME280;53294;47.912;13.526;2023-01-19T04:35:51;95051.47;;;0.67;68.98
66479;BME280;53294;47.912;13.526;2023-01-19T04:38:20;95041.41;;;0.59;69.72
66479;BME280;53294;47.912;13.526;2023-01-19T04:40:48;95040.91;;;0.73;69.35
66479;BME280;53294;47.912;13.526;2023-01-19T04:43:16;95047.06;;;0.94;68.51
66479;BME280;53294;47.912;13.526;2023-01-19T04:45:42;95038.59;;;1.02;68.06
66479;BME280;53294;47.912;13.526;2023-01-19T04:48:11;95042.06;;;1.07;68.28
66479;BME280;53294;47.912;13.526;2023-01-19T04:50:37;95032.78;;;1.25;68.00
66479;BME280;53294;47.912;13.526;2023-01-19T04:53:04;95036.50;;;1.14;68.53
66479;BME280;53294;47.912;13.526;2023-01-19T04:55:31;95042.34;;;1.21;68.19
66479;BME280;53294;47.912;13.526;2023-01-19T04:57:57;95052.88;;;1.01;69.69
66479;BME280;53294;47.912;13.526;2023-01-19T05:00:25;95051.31;;;1.05;69.35
66479;BME280;53294;47.912;13.526;2023-01-19T05:02:52;95056.59;;;1.10;69.49
66479;BME280;53294;47.912;13.526;2023-01-19T05:05:19;95059.53;;;1.29;68.82
66479;BME280;53294;47.912;13.526;2023-01-19T05:07:45;95060.34;;;1.40;68.21
66479;BME280;53294;47.912;13.526;2023-01-19T05:10:12;95060.59;;;1.49;68.07
66479;BME280;53294;47.912;13.526;2023-01-19T05:12:39;95060.59;;;1.59;67.94
66479;BME280;53294;47.912;13.526;2023-01-19T05:15:08;95059.28;;;1.56;68.18
66479;BME280;53294;47.912;13.526;2023-01-19T05:17:35;95072.25;;;1.68;67.58
66479;BME280;53294;47.912;13.526;2023-01-19T05:20:03;95071.44;;;1.78;67.09
66479;BME280;53294;47.912;13.526;2023-01-19T05:22:29;95079.66;;;1.82;67.12
66479;BME280;53294;47.912;13.526;2023-01-19T05:24:56;95082.03;;;1.78;67.39
66479;BME280;53294;47.912;13.526;2023-01-19T05:27:23;95086.81;;;1.45;68.67
66479;BME280;53294;47.912;13.526;2023-01-19T05:29:50;95085.75;;;1.51;68.38
66479;BME280;53294;47.912;13.526;2023-01-19T05:32:17;95081.53;;;1.60;68.13
66479;BME280;53294;47.912;13.526;2023-01-19T05:34:44;95086.81;;;1.66;68.16
66479;BME280;53294;47.912;13.526;2023-01-19T05:37:10;95089.72;;;1.43;68.59
66479;BME280;53294;47.912;13.526;2023-01-19T05:39:37;95093.38;;;1.17;69.88
66479;BME280;53294;47.912;13.526;2023-01-19T05:42:04;95097.31;;;0.99;70.42
66479;BME280;53294;47.912;13.526;2023-01-19T05:44:30;95105.22;;;0.94;70.14
66479;BME280;53294;47.912;13.526;2023-01-19T05:46:57;95109.97;;;0.86;70.66
66479;BME280;53294;47.912;13.526;2023-01-19T05:49:24;95111.75;;;0.65;70.93
66479;BME280;53294;47.912;13.526;2023-01-19T05:51:50;95113.56;;;0.60;70.98
66479;BME280;53294;47.912;13.526;2023-01-19T05:54:17;95116.13;;;0.39;71.48
66479;BME280;53294;47.912;13.526;2023-01-19T05:56:44;95114.34;;;0.12;72.34
66479;BME280;53294;47.912;13.526;2023-01-19T05:59:11;95127.06;;;0.15;71.99
66479;BME280;53294;47.912;13.526;2023-01-19T06:01:38;95134.91;;;0.00;73.16
66479;BME280;53294;47.912;13.526;2023-01-19T06:04:06;95134.59;;;-0.04;72.54
66479;BME280;53294;47.912;13.526;2023-01-19T06:06:32;95131.63;;;-0.12;73.06
66479;BME280;53294;47.912;13.526;2023-01-19T06:08:59;95139.81;;;-0.14;72.61
66479;BME280;53294;47.912;13.526;2023-01-19T06:11:26;95141.69;;;-0.09;72.58
66479;BME280;53294;47.912;13.526;2023-01-19T06:13:53;95135.81;;;-0.16;72.47
66479;BME280;53294;47.912;13.526;2023-01-19T06:16:20;95141.47;;;-0.35;74.00
66479;BME280;53294;47.912;13.526;2023-01-19T06:18:47;95144.91;;;-0.34;73.37
66479;BME280;53294;47.912;13.526;2023-01-19T06:21:13;95150.03;;;-0.23;72.87
66479;BME280;53294;47.912;13.526;2023-01-19T06:23:40;95150.88;;;-0.17;72.64
66479;BME280;53294;47.912;13.526;2023-01-19T06:26:07;95151.66;;;-0.16;73.26
66479;BME280;53294;47.912;13.526;2023-01-19T06:28:33;95156.53;;;-0.03;72.32
66479;BME280;53294;47.912;13.526;2023-01-19T06:31:00;95154.47;;;0.09;71.71
66479;BME280;53294;47.912;13.526;2023-01-19T06:33:27;95159.22;;;0.07;71.78
66479;BME280;53294;47.912;13.526;2023-01-19T06:35:54;95162.38;;;0.04;72.21
66479;BME280;53294;47.912;13.526;2023-01-19T06:38:21;95158.69;;;0.05;72.03
66479;BME280;53294;47.912;13.526;2023-01-19T06:40:53;95164.22;;;0.04;72.44
66479;BME280;53294;47.912;13.526;2023-01-19T06:43:20;95170.13;;;0.16;71.56
66479;BME280;53294;47.912;13.526;2023-01-19T06:45:47;95177.78;;;0.17;71.52
66479;BME280;53294;47.912;13.526;2023-01-19T06:48:15;95183.53;;;0.47;70.72
66479;BME280;53294;47.912;13.526;2023-01-19T06:50:46;95189.63;;;0.52;70.53
66479;BME280;53294;47.912;13.526;2023-01-19T06:53:14;95193.84;;;0.48;70.57
66479;BME280;53294;47.912;13.526;2023-01-19T06:55:42;95203.25;;;0.34;71.35
66479;BME280;53294;47.912;13.526;2023-01-19T06:58:10;95207.09;;;0.59;70.23
66479;BME280;53294;47.912;13.526;2023-01-19T07:00:37;95201.28;;;0.57;70.49
66479;BME280;53294;47.912;13.526;2023-01-19T07:03:06;95202.75;;;0.37;71.28
66479;BME280;53294;47.912;13.526;2023-01-19T07:05:34;95210.72;;;0.42;71.13
66479;BME280;53294;47.912;13.526;2023-01-19T07:08:01;95217.69;;;0.59;70.39
66479;BME280;53294;47.912;13.526;2023-01-19T07:10:28;95217.13;;;0.51;71.00
66479;BME280;53294;47.912;13.526;2023-01-19T07:13:15;95219.72;;;0.46;71.28
66479;BME280;53294;47.912;13.526;2023-01-19T07:15:42;95215.50;;;0.45;70.83
66479;BME280;53294;47.912;13.526;2023-01-19T07:18:09;95217.81;;;0.37;71.56
66479;BME280;53294;47.912;13.526;2023-01-19T07:20:36;95217.06;;;0.46;71.27
66479;BME280;53294;47.912;13.526;2023-01-19T07:23:03;95226.97;;;0.66;70.35
66479;BME280;53294;47.912;13.526;2023-01-19T07:25:30;95216.81;;;0.96;69.29
66479;BME280;53294;47.912;13.526;2023-01-19T07:27:58;95214.25;;;1.06;68.94
66479;BME280;53294;47.912;13.526;2023-01-19T07:30:25;95224.38;;;1.24;68.22
66479;BME280;53294;47.912;13.526;2023-01-19T07:32:54;95229.19;;;1.43;67.73
66479;BME280;53294;47.912;13.526;2023-01-19T07:35:23;95222.06;;;1.54;67.37
66479;BME280;53294;47.912;13.526;2023-01-19T07:37:50;95226.50;;;1.38;67.75
66479;BME280;53294;47.912;13.526;2023-01-19T07:40:16;95228.13;;;1.39;67.85
66479;BME280;53294;47.912;13.526;2023-01-19T07:42:47;95229.66;;;1.24;67.92
66479;BME280;53294;47.912;13.526;2023-01-19T07:45:15;95225.16;;;1.25;67.69
66479;BME280;53294;47.912;13.526;2023-01-19T07:47:43;95225.59;;;1.06;68.18
66479;BME280;53294;47.912;13.526;2023-01-19T07:50:11;95225.84;;;1.00;68.72
66479;BME280;53294;47.912;13.526;2023-01-19T07:52:39;95238.19;;;0.84;69.06
66479;BME280;53294;47.912;13.526;2023-01-19T07:55:06;95239.78;;;0.85;68.46
66479;BME280;53294;47.912;13.526;2023-01-19T07:57:34;95231.06;;;0.89;68.15
66479;BME280;53294;47.912;13.526;2023-01-19T08:00:02;95238.47;;;0.87;68.00
66479;BME280;53294;47.912;13.526;2023-01-19T08:02:30;95243.47;;;0.84;68.33
66479;BME280;53294;47.912;13.526;2023-01-19T08:04:59;95243.97;;;0.81;68.18
66479;BME280;53294;47.912;13.526;2023-01-19T08:07:26;95247.59;;;0.64;68.52
66479;BME280;53294;47.912;13.526;2023-01-19T08:09:52;95253.13;;;0.63;68.41
66479;BME280;53294;47.912;13.526;2023-01-19T08:12:19;95251.25;;;0.58;68.10
66479;BME280;53294;47.912;13.526;2023-01-19T08:14:45;95250.63;;;0.46;68.57
66479;BME280;53294;47.912;13.526;2023-01-19T08:17:12;95250.66;;;0.51;68.25
66479;BME280;53294;47.912;13.526;2023-01-19T08:19:39;95260.63;;;0.39;68.54
66479;BME280;53294;47.912;13.526;2023-01-19T08:22:07;95254.22;;;0.29;68.63
66479;BME280;53294;47.912;13.526;2023-01-19T08:24:34;95256.31;;;0.27;68.22
66479;BME280;53294;47.912;13.526;2023-01-19T08:27:01;95273.22;;;-0.06;69.57
66479;BME280;53294;47.912;13.526;2023-01-19T08:29:29;95292.03;;;-0.25;70.13
66479;BME280;53294;47.912;13.526;2023-01-19T08:31:57;95287.41;;;-0.12;69.57
66479;BME280;53294;47.912;13.526;2023-01-19T08:34:25;95296.00;;;0.05;68.86
66479;BME280;53294;47.912;13.526;2023-01-19T08:36:52;95307.16;;;0.12;68.72
66479;BME280;53294;47.912;13.526;2023-01-19T08:39:19;95305.56;;;0.11;68.46
66479;BME280;53294;47.912;13.526;2023-01-19T08:41:46;95307.16;;;0.12;68.61
66479;BME280;53294;47.912;13.526;2023-01-19T08:44:12;95314.72;;;0.31;67.95
66479;BME280;53294;47.912;13.526;2023-01-19T08:46:39;95315.53;;;0.04;68.40
66479;BME280;53294;47.912;13.526;2023-01-19T08:49:06;95322.41;;;0.05;68.02
66479;BME280;53294;47.912;13.526;2023-01-19T08:51:33;95327.66;;;-0.22;68.08
66479;BME280;53294;47.912;13.526;2023-01-19T08:54:00;95328.84;;;-0.35;68.76
66479;BME280;53294;47.912;13.526;2023-01-19T08:56:26;95333.19;;;-0.24;68.70
66479;BME280;53294;47.912;13.526;2023-01-19T08:58:53;95334.97;;;-0.07;68.27
66479;BME280;53294;47.912;13.526;2023-01-19T09:01:34;95341.69;;;0.06;67.82
66479;BME280;53294;47.912;13.526;2023-01-19T09:04:03;95341.63;;;0.28;67.43
66479;BME280;53294;47.912;13.526;2023-01-19T09:06:29;95347.69;;;0.56;66.61
66479;BME280;53294;47.912;13.526;2023-01-19T09:08:56;95354.81;;;0.50;67.06
66479;BME280;53294;47.912;13.526;2023-01-19T09:11:23;95358.84;;;0.58;67.20
66479;BME280;53294;47.912;13.526;2023-01-19T09:13:50;95353.72;;;0.83;66.29
66479;BME280;53294;47.912;13.526;2023-01-19T09:16:16;95352.59;;;1.12;65.76
66479;BME280;53294;47.912;13.526;2023-01-19T09:18:43;95350.25;;;1.15;65.77
66479;BME280;53294;47.912;13.526;2023-01-19T09:21:11;95356.00;;;1.07;65.94
66479;BME280;53294;47.912;13.526;2023-01-19T09:23:39;95353.94;;;1.14;66.18
66479;BME280;53294;47.912;13.526;2023-01-19T09:26:06;95365.19;;;1.37;65.48
66479;BME280;53294;47.912;13.526;2023-01-19T09:28:32;95363.41;;;1.48;65.26
66479;BME280;53294;47.912;13.526;2023-01-19T09:31:04;95366.41;;;1.19;65.95
66479;BME280;53294;47.912;13.526;2023-01-19T09:33:32;95371.94;;;1.17;66.00
66479;BME280;53294;47.912;13.526;2023-01-19T09:35:59;95370.75;;;0.98;66.13
66479;BME280;53294;47.912;13.526;2023-01-19T09:38:27;95368.94;;;0.98;65.68
66479;BME280;53294;47.912;13.526;2023-01-19T09:40:59;95364.41;;;0.94;65.97
66479;BME280;53294;47.912;13.526;2023-01-19T09:46:00;95361.16;;;0.86;65.28
66479;BME280;53294;47.912;13.526;2023-01-19T09:48:54;95366.47;;;0.92;65.89
66479;BME280;53294;47.912;13.526;2023-01-19T09:51:28;95367.81;;;0.57;66.41
66479;BME280;53294;47.912;13.526;2023-01-19T09:54:02;95375.00;;;0.66;66.28
66479;BME280;53294;47.912;13.526;2023-01-19T09:56:31;95365.38;;;0.50;67.09
66479;BME280;53294;47.912;13.526;2023-01-19T09:58:59;95363.19;;;0.14;68.05
66479;BME280;53294;47.912;13.526;2023-01-19T10:01:36;95367.31;;;0.05;68.46
66479;BME280;53294;47.912;13.526;2023-01-19T10:04:33;95362.53;;;0.02;68.47
66479;BME280;53294;47.912;13.526;2023-01-19T10:14:55;95367.69;;;-0.08;70.90
66479;BME280;53294;47.912;13.526;2023-01-19T10:20:15;95363.16;;;0.69;67.95
66479;BME280;53294;47.912;13.526;2023-01-19T10:22:49;95356.50;;;0.99;67.10
66479;BME280;53294;47.912;13.526;2023-01-19T10:25:20;95355.53;;;1.15;66.85
66479;BME280;53294;47.912;13.526;2023-01-19T10:27:49;95360.44;;;1.39;65.76
66479;BME280;53294;47.912;13.526;2023-01-19T10:30:27;95351.31;;;1.14;65.53
66479;BME280;53294;47.912;13.526;2023-01-19T10:32:55;95349.59;;;0.60;67.17
66479;BME280;53294;47.912;13.526;2023-01-19T10:35:23;95349.81;;;0.53;67.78
66479;BME280;53294;47.912;13.526;2023-01-19T10:37:55;95356.75;;;0.32;67.96
66479;BME280;53294;47.912;13.526;2023-01-19T10:40:36;95355.50;;;0.40;67.64
66479;BME280;53294;47.912;13.526;2023-01-19T10:43:36;95361.13;;;0.49;67.42
66479;BME280;53294;47.912;13.526;2023-01-19T10:46:16;95356.59;;;0.44;67.64
66479;BME280;53294;47.912;13.526;2023-01-19T10:48:47;95347.13;;;0.48;67.28
66479;BME280;53294;47.912;13.526;2023-01-19T10:51:14;95344.38;;;1.08;65.61
66479;BME280;53294;47.912;13.526;2023-01-19T10:53:59;95341.63;;;0.93;65.41
66479;BME280;53294;47.912;13.526;2023-01-19T10:56:33;95339.53;;;0.95;64.97
66479;BME280;53294;47.912;13.526;2023-01-19T10:59:03;95351.19;;;0.99;65.39
66479;BME280;53294;47.912;13.526;2023-01-19T11:01:31;95341.53;;;0.45;66.59
66479;BME280;53294;47.912;13.526;2023-01-19T11:04:21;95332.78;;;0.39;66.83
66479;BME280;53294;47.912;13.526;2023-01-19T11:07:32;95334.44;;;0.83;65.92
66479;BME280;53294;47.912;13.526;2023-01-19T11:12:41;95333.13;;;0.85;65.04
66479;BME280;53294;47.912;13.526;2023-01-19T11:15:21;95335.31;;;0.99;64.99
66479;BME280;53294;47.912;13.526;2023-01-19T11:17:49;95331.69;;;1.10;64.50
66479;BME280;53294;47.912;13.526;2023-01-19T11:20:39;95333.56;;;0.72;64.96
66479;BME280;53294;47.912;13.526;2023-01-19T11:25:39;95332.28;;;0.42;65.97
66479;BME280;53294;47.912;13.526;2023-01-19T11:28:25;95334.16;;;0.20;66.19
66479;BME280;53294;47.912;13.526;2023-01-19T11:30:59;95330.50;;;0.21;65.99
66479;BME280;53294;47.912;13.526;2023-01-19T11:33:42;95330.00;;;0.24;65.80
66479;BME280;53294;47.912;13.526;2023-01-19T11:36:21;95326.28;;;0.25;64.89
66479;BME280;53294;47.912;13.526;2023-01-19T11:38:51;95320.38;;;-0.15;65.69
66479;BME280;53294;47.912;13.526;2023-01-19T11:41:27;95324.28;;;-0.17;65.75
66479;BME280;53294;47.912;13.526;2023-01-19T11:44:10;95318.38;;;-0.03;65.68
66479;BME280;53294;47.912;13.526;2023-01-19T11:46:40;95327.09;;;-0.02;65.97
66479;BME280;53294;47.912;13.526;2023-01-19T11:49:24;95317.63;;;0.02;66.01
66479;BME280;53294;47.912;13.526;2023-01-19T11:52:23;95312.25;;;0.19;65.49
66479;BME280;53294;47.912;13.526;2023-01-19T11:55:40;95315.22;;;0.28;65.08
66479;BME280;53294;47.912;13.526;2023-01-19T11:57:45;95315.94;;;0.18;65.04
66479;BME280;53294;47.912;13.526;2023-01-19T12:00:41;95314.22;;;0.34;64.31
66479;BME280;53294;47.912;13.526;2023-01-19T12:03:32;95313.66;;;0.27;64.58
66479;BME280;53294;47.912;13.526;2023-01-19T12:06:04;95309.94;;;0.28;64.41
66479;BME280;53294;47.912;13.526;2023-01-19T12:08:35;95311.38;;;0.08;64.95
66479;BME280;53294;47.912;13.526;2023-01-19T12:11:03;95307.16;;;0.12;64.78
66479;BME280;53294;47.912;13.526;2023-01-19T12:13:32;95306.06;;;0.08;65.43
66479;BME280;53294;47.912;13.526;2023-01-19T12:16:17;95310.03;;;0.11;65.74
66479;BME280;53294;47.912;13.526;2023-01-19T12:19:06;95314.63;;;-0.34;67.30
66479;BME280;53294;47.912;13.526;2023-01-19T12:21:36;95307.19;;;-0.37;67.40
66479;BME280;53294;47.912;13.526;2023-01-19T12:24:15;95304.25;;;-0.41;67.78
66479;BME280;53294;47.912;13.526;2023-01-19T12:26:55;95304.16;;;-0.24;67.14
66479;BME280;53294;47.912;13.526;2023-01-19T12:29:26;95300.09;;;-0.09;66.72
66479;BME280;53294;47.912;13.526;2023-01-19T12:37:28;95300.78;;;0.08;65.50
66479;BME280;53294;47.912;13.526;2023-01-19T12:42:32;95305.88;;;0.47;65.08
66479;BME280;53294;47.912;13.526;2023-01-19T12:45:14;95306.50;;;0.60;64.96
66479;BME280;53294;47.912;13.526;2023-01-19T12:47:52;95305.34;;;0.45;65.66
66479;BME280;53294;47.912;13.526;2023-01-19T12:50:20;95302.88;;;0.71;65.11
66479;BME280;53294;47.912;13.526;2023-01-19T12:52:52;95301.47;;;1.01;64.42
66479;BME280;53294;47.912;13.526;2023-01-19T12:55:27;95306.28;;;0.34;65.87
66479;BME280;53294;47.912;13.526;2023-01-19T12:58:13;95302.66;;;0.40;66.39
66479;BME280;53294;47.912;13.526;2023-01-19T13:00:47;95298.38;;;1.09;64.63
66479;BME280;53294;47.912;13.526;2023-01-19T13:21:28;95301.31;;;0.70;63.76
66479;BME280;53294;47.912;13.526;2023-01-19T13:23:58;95301.97;;;0.93;63.39
66479;BME280;53294;47.912;13.526;2023-01-19T13:26:29;95300.94;;;0.94;63.05
66479;BME280;53294;47.912;13.526;2023-01-19T13:29:02;95302.72;;;1.36;63.19
66479;BME280;53294;47.912;13.526;2023-01-19T13:31:37;95299.06;;;1.47;61.87
66479;BME280;53294;47.912;13.526;2023-01-19T13:34:11;95295.84;;;1.35;62.36
66479;BME280;53294;47.912;13.526;2023-01-19T13:36:44;95301.13;;;0.87;62.99
66479;BME280;53294;47.912;13.526;2023-01-19T13:39:25;95303.69;;;0.71;63.48
66479;BME280;53294;47.912;13.526;2023-01-19T13:41:55;95305.34;;;0.45;64.58
66479;BME280;53294;47.912;13.526;2023-01-19T13:46:52;95312.00;;;0.21;65.86
66479;BME280;53294;47.912;13.526;2023-01-19T13:49:29;95302.09;;;0.38;65.09
66479;BME280;53294;47.912;13.526;2023-01-19T13:52:14;95306.25;;;0.29;65.22
66479;BME280;53294;47.912;13.526;2023-01-19T13:54:59;95314.22;;;0.34;63.98
66479;BME280;53294;47.912;13.526;2023-01-19T13:57:37;95312.28;;;0.57;63.01
66479;BME280;53294;47.912;13.526;2023-01-19T14:02:32;95314.59;;;0.85;62.25
66479;BME280;53294;47.912;13.526;2023-01-19T14:05:12;95314.59;;;0.85;60.82
66479;BME280;53294;47.912;13.526;2023-01-19T14:07:39;95319.38;;;0.88;61.08
66479;BME280;53294;47.912;13.526;2023-01-19T14:10:12;95312.56;;;0.98;61.19
66479;BME280;53294;47.912;13.526;2023-01-19T14:12:40;95315.41;;;0.48;62.63
66479;BME280;53294;47.912;13.526;2023-01-19T14:15:24;95321.09;;;0.35;63.01
66479;BME280;53294;47.912;13.526;2023-01-19T14:18:30;95327.66;;;0.00;62.10
66479;BME280;53294;47.912;13.526;2023-01-19T14:21:01;95320.69;;;0.16;62.99
66479;BME280;53294;47.912;13.526;2023-01-19T14:26:48;95323.47;;;0.64;62.26
66479;BME280;53294;47.912;13.526;2023-01-19T14:29:23;95331.31;;;0.53;61.02
66479;BME280;53294;47.912;13.526;2023-01-19T14:37:49;95327.78;;;0.15;61.59